createdAt,value
2019-04-11T00:00:28.369Z,90.20
2019-04-11T00:03:00.890Z,90.20
2019-04-11T00:05:35.343Z,90.10
2019-04-11T00:08:05.983Z,90.00
2019-04-11T00:10:37.515Z,90.00
2019-04-11T00:13:18.898Z,90.00
2019-04-11T00:15:46.734Z,89.80
2019-04-11T00:18:18.632Z,89.60
2019-04-11T00:20:56.146Z,89.70
2019-04-11T00:23:26.086Z,89.70
2019-04-11T00:25:56.000Z,89.70
2019-04-11T00:28:25.879Z,89.50
2019-04-11T00:30:56.605Z,89.20
2019-04-11T00:33:29.881Z,89.20
2019-04-11T00:36:00.270Z,89.40
2019-04-11T00:38:32.636Z,89.40
2019-04-11T00:41:02.429Z,89.50
2019-04-11T00:43:37.686Z,89.40
2019-04-11T00:46:04.380Z,89.20
2019-04-11T00:48:38.778Z,89.10
2019-04-11T00:51:09.718Z,89.10
2019-04-11T00:53:40.368Z,88.90
2019-04-11T00:56:15.791Z,88.80
2019-04-11T00:58:50.107Z,88.70
2019-04-11T01:01:21.860Z,88.40
2019-04-11T01:03:51.873Z,88.20
2019-04-11T01:06:22.459Z,88.20
2019-04-11T01:08:56.134Z,88.30
2019-04-11T01:11:25.876Z,88.30
2019-04-11T01:14:05.679Z,88.20
2019-04-11T01:16:54.333Z,87.90
2019-04-11T01:19:26.939Z,87.80
2019-04-11T01:21:59.203Z,87.70
2019-04-11T01:24:29.240Z,87.50
2019-04-11T01:26:59.344Z,87.30
2019-04-11T01:29:29.297Z,87.60
2019-04-11T01:32:02.333Z,87.30
2019-04-11T01:34:37.085Z,87.10
2019-04-11T01:37:11.413Z,87.50
2019-04-11T01:39:59.370Z,87.60
2019-04-11T01:42:29.795Z,87.60
2019-04-11T01:44:59.586Z,87.60
2019-04-11T01:48:07.041Z,87.30
2019-04-11T01:50:39.130Z,86.80
2019-04-11T01:53:10.992Z,86.90
2019-04-11T01:55:41.238Z,86.90
2019-04-11T01:58:11.067Z,86.90
2019-04-11T02:01:08.656Z,86.90
2019-04-11T02:03:57.637Z,86.60
2019-04-11T02:06:29.913Z,86.70
2019-04-11T02:09:08.177Z,86.50
2019-04-11T02:11:39.527Z,86.30
2019-04-11T02:14:16.178Z,86.40
2019-04-11T02:16:43.293Z,86.00
2019-04-11T02:19:14.081Z,86.10
2019-04-11T02:21:44.164Z,86.40
2019-04-11T02:24:37.625Z,86.60
2019-04-11T02:27:24.797Z,86.60
2019-04-11T02:29:55.609Z,86.60
2019-04-11T02:32:28.667Z,86.30
2019-04-11T02:35:02.476Z,86.20
2019-04-11T02:37:33.471Z,86.20
2019-04-11T02:40:05.506Z,86.00
2019-04-11T02:42:43.196Z,86.10
2019-04-11T02:45:27.916Z,86.20
2019-04-11T02:47:48.199Z,86.20
2019-04-11T02:50:19.732Z,86.30
2019-04-11T02:52:51.909Z,86.20
2019-04-11T02:55:27.142Z,86.10
2019-04-11T02:57:59.076Z,86.10
2019-04-11T03:00:29.171Z,86.10
2019-04-11T03:03:01.663Z,86.00
2019-04-11T03:05:35.142Z,85.90
2019-04-11T03:08:07.972Z,86.00
2019-04-11T03:10:37.755Z,85.90
2019-04-11T03:13:08.383Z,85.90
2019-04-11T03:15:57.260Z,86.20
2019-04-11T03:18:33.149Z,86.00
2019-04-11T03:20:49.762Z,86.20
2019-04-11T03:23:21.095Z,86.20
2019-04-11T03:25:54.226Z,86.10
2019-04-11T03:28:28.124Z,86.10
2019-04-11T03:31:30.385Z,86.20
2019-04-11T03:38:55.170Z,86.20
2019-04-11T03:41:25.339Z,86.30
2019-04-11T03:43:50.870Z,86.60
2019-04-11T03:46:30.991Z,86.60
2019-04-11T03:49:00.190Z,86.20
2019-04-11T03:51:27.720Z,86.10
2019-04-11T03:53:59.176Z,86.20
2019-04-11T03:56:29.509Z,86.20
2019-04-11T03:59:01.470Z,86.00
2019-04-11T04:01:31.988Z,86.20
2019-04-11T04:04:02.803Z,86.20
2019-04-11T04:06:43.271Z,86.30
2019-04-11T04:09:17.087Z,86.60
2019-04-11T04:11:54.438Z,86.20
2019-04-11T04:14:42.879Z,86.30
2019-04-11T04:17:28.534Z,86.30
2019-04-11T04:20:33.041Z,86.30
2019-04-11T04:23:25.076Z,86.20
2019-04-11T04:25:55.277Z,85.90
2019-04-11T04:28:25.093Z,86.10
2019-04-11T04:30:54.931Z,85.90
2019-04-11T04:33:26.595Z,86.30
2019-04-11T04:35:58.022Z,86.10
2019-04-11T04:38:33.756Z,86.00
2019-04-11T04:41:19.957Z,86.00
2019-04-11T04:43:43.548Z,86.20
2019-04-11T04:46:36.513Z,86.80
2019-04-11T04:48:51.522Z,85.90
2019-04-11T04:51:24.123Z,86.20
2019-04-11T04:54:08.113Z,86.30
2019-04-11T04:56:34.759Z,86.50
2019-04-11T04:59:06.980Z,86.50
2019-04-11T05:01:37.355Z,85.90
2019-04-11T05:04:09.154Z,86.40
2019-04-11T05:06:40.880Z,86.40
2019-04-11T05:09:14.834Z,86.70
2019-04-11T05:11:44.735Z,86.50
2019-04-11T05:14:16.361Z,86.30
2019-04-11T05:16:58.104Z,86.60
2019-04-11T05:19:29.910Z,86.20
2019-04-11T05:22:17.663Z,86.30
2019-04-11T05:25:01.733Z,86.40
2019-04-11T05:27:29.996Z,86.30
2019-04-11T05:30:20.382Z,86.20
2019-04-11T05:33:25.814Z,86.20
2019-04-11T05:35:58.540Z,86.30
2019-04-11T05:38:52.666Z,86.40
2019-04-11T05:41:46.713Z,86.40
2019-04-11T05:44:17.129Z,86.50
2019-04-11T05:46:54.816Z,85.90
2019-04-11T05:49:47.125Z,86.00
2019-04-11T05:52:20.865Z,85.90
2019-04-11T05:55:04.920Z,85.90
2019-04-11T05:57:40.428Z,86.30
2019-04-11T06:00:28.413Z,86.10
2019-04-11T06:03:05.732Z,85.50
2019-04-11T06:05:59.906Z,85.80
2019-04-11T06:08:30.778Z,85.80
2019-04-11T06:11:24.178Z,85.60
2019-04-11T06:14:24.916Z,85.30
2019-04-11T06:17:05.191Z,85.10
2019-04-11T06:19:53.771Z,85.10
2019-04-11T06:22:25.806Z,85.20
2019-04-11T06:25:17.154Z,84.80
2019-04-11T06:27:59.964Z,84.90
2019-04-11T06:30:48.890Z,84.70
2019-04-11T06:33:37.483Z,84.70
2019-04-11T06:36:28.485Z,84.70
2019-04-11T06:39:23.062Z,84.60
2019-04-11T06:42:04.136Z,84.60
2019-04-11T06:44:58.668Z,84.30
2019-04-11T06:47:53.156Z,84.40
2019-04-11T06:51:09.104Z,83.90
2019-04-11T06:53:46.381Z,84.10
2019-04-11T06:56:41.235Z,84.00
2019-04-11T06:59:20.605Z,83.70
2019-04-11T07:02:07.542Z,83.80
2019-04-11T07:04:39.934Z,83.70
2019-04-11T07:07:13.095Z,83.80
2019-04-11T07:09:53.471Z,83.70
2019-04-11T07:12:59.358Z,83.70
2019-04-11T07:15:52.778Z,83.70
2019-04-11T07:18:54.832Z,83.40
2019-04-11T07:21:37.670Z,83.70
2019-04-11T07:24:48.169Z,83.70
2019-04-11T07:27:57.183Z,83.90
2019-04-11T07:30:53.653Z,83.70
2019-04-11T07:33:59.143Z,83.60
2019-04-11T07:36:46.323Z,83.90
2019-04-11T07:39:35.486Z,83.80
2019-04-11T07:42:43.358Z,83.90
2019-04-11T07:45:18.692Z,83.60
2019-04-11T07:47:58.150Z,83.80
2019-04-11T07:50:27.886Z,83.70
2019-04-11T07:53:01.456Z,83.70
2019-04-11T07:55:35.022Z,83.30
2019-04-11T07:58:31.563Z,83.30
2019-04-11T08:01:22.042Z,83.60
2019-04-11T08:04:17.281Z,83.80
2019-04-11T08:07:02.941Z,84.10
2019-04-11T08:09:53.016Z,83.80
2019-04-11T08:12:43.146Z,83.80
2019-04-11T08:15:33.484Z,83.40
2019-04-11T08:18:26.418Z,83.50
2019-04-11T08:21:35.346Z,83.40
2019-04-11T08:24:45.191Z,83.60
2019-04-11T08:27:54.910Z,83.70
2019-04-11T08:30:33.081Z,83.20
2019-04-11T08:33:07.482Z,83.30
2019-04-11T08:35:57.140Z,83.20
2019-04-11T08:38:36.660Z,82.60
2019-04-11T08:41:29.997Z,82.60
2019-04-11T08:43:59.889Z,82.50
2019-04-11T08:46:33.633Z,82.90
2019-04-11T08:49:05.683Z,82.90
2019-04-11T08:51:35.746Z,82.90
2019-04-11T08:54:31.338Z,82.50
2019-04-11T08:57:03.366Z,83.00
2019-04-11T08:59:51.899Z,83.30
2019-04-11T09:02:33.266Z,83.50
2019-04-11T09:05:33.348Z,82.80
2019-04-11T09:08:30.077Z,82.90
2019-04-11T09:11:17.009Z,83.00
2019-04-11T09:14:06.105Z,83.20
2019-04-11T09:16:54.093Z,82.50
2019-04-11T09:19:43.114Z,82.50
2019-04-11T09:22:49.673Z,82.40
2019-04-11T09:25:37.113Z,81.90
2019-04-11T09:28:11.352Z,82.10
2019-04-11T09:31:01.056Z,82.30
2019-04-11T09:34:03.621Z,82.60
2019-04-11T09:36:40.903Z,82.50
2019-04-11T09:39:45.554Z,82.80
2019-04-11T09:42:28.409Z,82.70
2019-04-11T09:45:15.478Z,82.90
2019-04-11T09:48:13.456Z,83.00
2019-04-11T09:50:55.137Z,83.20
2019-04-11T09:53:30.339Z,83.50
2019-04-11T09:56:33.684Z,82.70
2019-04-11T09:59:16.411Z,82.60
2019-04-11T10:02:41.993Z,81.70
2019-04-11T10:05:35.689Z,81.50
2019-04-11T10:08:13.331Z,81.30
2019-04-11T10:11:04.155Z,81.20
2019-04-11T10:14:01.760Z,81.50
2019-04-11T10:17:08.737Z,81.60
2019-04-11T10:20:04.526Z,81.10
2019-04-11T10:23:27.053Z,81.40
2019-04-11T10:26:03.415Z,80.60
2019-04-11T10:29:04.378Z,80.80
2019-04-11T10:31:36.751Z,81.00
2019-04-11T10:34:35.417Z,80.80
2019-04-11T10:37:35.877Z,80.40
2019-04-11T10:40:28.126Z,80.50
2019-04-11T10:42:58.202Z,80.50
2019-04-11T10:45:55.753Z,80.80
2019-04-11T10:48:35.606Z,80.80
2019-04-11T10:51:17.297Z,80.50
2019-04-11T10:53:52.644Z,80.50
2019-04-11T10:56:41.790Z,80.60
2019-04-11T10:59:15.984Z,80.40
2019-04-11T11:02:17.735Z,80.30
2019-04-11T11:04:56.798Z,80.80
2019-04-11T11:07:59.220Z,80.90
2019-04-11T11:10:33.250Z,81.00
2019-04-11T11:13:27.482Z,81.20
2019-04-11T11:16:00.161Z,80.70
2019-04-11T11:19:15.652Z,80.70
2019-04-11T11:21:31.832Z,81.30
2019-04-11T11:24:30.107Z,80.80
2019-04-11T11:27:04.520Z,81.10
2019-04-11T11:30:13.141Z,80.70
2019-04-11T11:32:45.350Z,80.90
2019-04-11T11:35:37.054Z,81.30
2019-04-11T11:38:09.370Z,81.40
2019-04-11T11:41:08.062Z,81.50
2019-04-11T11:43:37.701Z,81.30
2019-04-11T11:46:38.294Z,81.40
2019-04-11T11:49:38.873Z,81.50
2019-04-11T11:52:11.090Z,81.60
2019-04-11T11:54:55.648Z,81.50
2019-04-11T11:58:16.809Z,81.40
2019-04-11T12:00:46.263Z,81.20
2019-04-11T12:04:00.160Z,81.40
2019-04-11T12:06:29.194Z,81.60
2019-04-11T12:09:15.820Z,81.60
2019-04-11T12:11:56.994Z,81.60
2019-04-11T12:14:45.335Z,81.40
2019-04-11T12:17:25.239Z,81.80
2019-04-11T12:20:19.160Z,82.10
2019-04-11T12:23:48.502Z,81.80
2019-04-11T12:26:13.669Z,81.60
2019-04-11T12:29:34.357Z,81.90
2019-04-11T12:32:08.366Z,81.80
2019-04-11T12:34:57.725Z,81.90
2019-04-11T12:37:39.706Z,82.20
2019-04-11T12:40:29.602Z,82.40
2019-04-11T12:43:07.634Z,82.10
2019-04-11T12:46:05.658Z,82.40
2019-04-11T12:48:46.733Z,82.30
2019-04-11T12:51:34.447Z,82.60
2019-04-11T12:57:01.658Z,81.90
2019-04-11T12:59:37.717Z,82.10
2019-04-11T13:02:27.243Z,81.90
2019-04-11T13:04:58.462Z,81.60
2019-04-11T13:07:51.165Z,82.00
2019-04-11T13:10:30.074Z,82.20
2019-04-11T13:13:18.757Z,82.10
2019-04-11T13:16:12.746Z,82.50
2019-04-11T13:19:05.988Z,82.20
2019-04-11T13:21:54.415Z,82.00
2019-04-11T13:24:40.378Z,82.00
2019-04-11T13:27:16.431Z,81.80
2019-04-11T13:30:05.014Z,82.10
2019-04-11T13:33:01.758Z,81.90
2019-04-11T13:36:04.803Z,82.00
2019-04-11T13:38:40.259Z,81.90
2019-04-11T13:41:30.456Z,82.10
2019-04-11T13:44:09.877Z,81.80
2019-04-11T13:47:15.059Z,81.80
2019-04-11T13:50:16.795Z,81.80
2019-04-11T13:52:56.562Z,82.00
2019-04-11T13:55:43.417Z,82.10
2019-04-11T13:58:30.299Z,82.00
2019-04-11T14:01:01.198Z,81.80
2019-04-11T14:03:58.210Z,81.90
2019-04-11T14:06:35.049Z,81.80
2019-04-11T14:09:38.378Z,81.80
2019-04-11T14:12:12.227Z,81.40
2019-04-11T14:15:14.446Z,81.40
2019-04-11T14:18:01.493Z,81.30
2019-04-11T14:20:56.782Z,81.30
2019-04-11T14:24:16.939Z,80.90
2019-04-11T14:27:24.317Z,80.80
2019-04-11T14:30:18.580Z,80.90
2019-04-11T14:32:49.316Z,81.40
2019-04-11T14:35:49.895Z,81.60
2019-04-11T14:38:21.123Z,81.70
2019-04-11T14:41:21.481Z,81.30
2019-04-11T14:43:56.675Z,81.20
2019-04-11T14:46:46.589Z,81.50
2019-04-11T14:49:23.040Z,81.50
2019-04-11T14:52:29.822Z,81.30
2019-04-11T14:55:01.646Z,81.50
2019-04-11T14:58:09.952Z,81.50
2019-04-11T15:00:43.291Z,81.50
2019-04-11T15:03:27.725Z,81.30
2019-04-11T15:06:04.788Z,81.30
2019-04-11T15:08:54.049Z,81.50
2019-04-11T15:11:44.168Z,81.70
2019-04-11T15:14:35.935Z,82.00
2019-04-11T15:17:24.421Z,82.50
2019-04-11T15:20:05.031Z,82.70
2019-04-11T15:22:49.265Z,82.30
2019-04-11T15:25:40.625Z,82.60
2019-04-11T15:28:34.959Z,82.70
2019-04-11T15:31:23.934Z,82.80
2019-04-11T15:34:11.150Z,82.40
2019-04-11T15:36:44.929Z,82.80
2019-04-11T15:39:44.115Z,83.50
2019-04-11T15:42:26.793Z,83.70
2019-04-11T15:45:14.022Z,83.80
2019-04-11T15:47:50.596Z,83.30
2019-04-11T15:50:49.833Z,83.10
2019-04-11T15:53:27.363Z,83.00
2019-04-11T15:56:15.824Z,83.40
2019-04-11T15:58:50.001Z,83.20
2019-04-11T16:01:47.201Z,83.20
2019-04-11T16:04:31.349Z,83.20
2019-04-11T16:07:26.129Z,83.20
2019-04-11T16:09:56.993Z,83.20
2019-04-11T16:12:56.972Z,83.40
2019-04-11T16:15:35.624Z,83.30
2019-04-11T16:18:27.493Z,83.50
2019-04-11T16:20:58.861Z,83.90
2019-04-11T16:23:46.519Z,83.60
2019-04-11T16:26:21.569Z,83.50
2019-04-11T16:29:18.659Z,83.40
2019-04-11T16:31:54.766Z,83.10
2019-04-11T16:34:59.067Z,83.40
2019-04-11T16:37:28.956Z,83.50
2019-04-11T16:40:43.672Z,83.30
2019-04-11T16:43:14.765Z,83.70
2019-04-11T16:46:18.652Z,83.70
2019-04-11T16:48:51.133Z,83.70
2019-04-11T16:51:30.887Z,83.80
2019-04-11T16:54:09.556Z,83.50
2019-04-11T16:56:41.726Z,83.20
2019-04-11T16:59:12.781Z,83.50
2019-04-11T17:01:42.937Z,83.30
2019-04-11T17:04:18.409Z,82.80
2019-04-11T17:06:57.911Z,82.50
2019-04-11T17:09:42.225Z,82.70
2019-04-11T17:12:17.773Z,83.10
2019-04-11T17:15:30.621Z,83.30
2019-04-11T17:18:05.825Z,83.40
2019-04-11T17:21:00.172Z,83.30
2019-04-11T17:23:38.770Z,83.40
2019-04-11T17:26:11.281Z,83.40
2019-04-11T17:29:00.955Z,83.70
2019-04-11T17:31:34.713Z,84.10
2019-04-11T17:34:05.635Z,83.80
2019-04-11T17:36:37.225Z,83.80
2019-04-11T17:39:13.825Z,83.70
2019-04-11T17:41:44.538Z,83.20
2019-04-11T17:44:17.463Z,83.10
2019-04-11T17:47:26.786Z,83.20
2019-04-11T17:49:55.908Z,83.10
2019-04-11T17:52:27.278Z,83.20
2019-04-11T17:55:00.126Z,83.50
2019-04-11T17:57:30.554Z,83.60
2019-04-11T18:00:00.312Z,83.50
2019-04-11T18:02:42.045Z,83.50
2019-04-11T18:05:17.190Z,83.50
2019-04-11T18:07:51.423Z,83.70
2019-04-11T18:10:25.553Z,84.00
2019-04-11T18:13:02.384Z,83.80
2019-04-11T18:15:37.201Z,83.50
2019-04-11T18:18:11.357Z,83.70
2019-04-11T18:20:55.345Z,83.70
2019-04-11T18:24:07.712Z,83.40
2019-04-11T18:27:08.548Z,83.60
2019-04-11T18:29:38.354Z,82.90
2019-04-11T18:32:10.536Z,83.10
2019-04-11T18:35:05.543Z,82.80
2019-04-11T18:37:37.837Z,82.90
2019-04-11T18:40:21.781Z,83.00
2019-04-11T18:42:52.057Z,82.90
2019-04-11T18:48:13.669Z,83.50
2019-04-11T18:51:04.188Z,83.60
2019-04-11T18:53:55.797Z,83.70
2019-04-11T18:56:28.083Z,83.60
2019-04-11T18:59:29.284Z,83.50
2019-04-11T19:02:19.349Z,83.60
2019-04-11T19:04:57.934Z,83.80
2019-04-11T19:07:50.131Z,83.80
2019-04-11T19:10:25.099Z,83.60
2019-04-11T19:13:03.071Z,83.60
2019-04-11T19:15:56.964Z,84.00
2019-04-11T19:18:54.444Z,84.50
2019-04-11T19:21:30.342Z,84.10
2019-04-11T19:24:00.827Z,83.90
2019-04-11T19:26:32.392Z,84.00
2019-04-11T19:29:34.102Z,83.80
2019-04-11T19:32:12.102Z,83.90
2019-04-11T19:34:42.295Z,84.10
2019-04-11T19:38:21.682Z,84.30
2019-04-11T19:40:26.672Z,84.40
2019-04-11T19:42:56.316Z,84.30
2019-04-11T19:45:35.101Z,84.30
2019-04-11T19:48:32.089Z,84.40
2019-04-11T19:51:17.120Z,84.50
2019-04-11T19:53:55.555Z,84.20
2019-04-11T19:57:10.564Z,84.40
2019-04-11T19:59:42.604Z,84.70
2019-04-11T20:02:32.465Z,84.70
2019-04-11T20:05:13.547Z,84.70
2019-04-11T20:08:05.653Z,85.00
2019-04-11T20:11:01.004Z,84.60
2019-04-11T20:13:32.339Z,84.50
2019-04-11T20:16:01.736Z,84.10
2019-04-11T20:18:37.666Z,84.50
2019-04-11T20:21:24.646Z,84.60
2019-04-11T20:24:29.589Z,84.80
2019-04-11T20:27:00.003Z,84.10
2019-04-11T20:29:57.561Z,83.90
2019-04-11T20:32:33.069Z,83.70
2019-04-11T20:35:02.680Z,83.60
2019-04-11T20:37:39.249Z,83.60
2019-04-11T20:40:06.619Z,83.70
2019-04-11T20:42:48.002Z,83.80
2019-04-11T20:45:20.698Z,83.70
2019-04-11T20:47:50.312Z,83.30
2019-04-11T20:53:55.187Z,83.30
2019-04-11T20:56:46.035Z,83.40
2019-04-11T20:59:34.613Z,83.40
2019-04-11T21:02:04.490Z,83.50
2019-04-11T21:04:54.324Z,83.50
2019-04-11T21:07:47.092Z,83.60
2019-04-11T21:10:19.578Z,83.60
2019-04-11T21:13:12.515Z,83.70
2019-04-11T21:15:48.632Z,83.60
2019-04-11T21:18:18.408Z,83.60
2019-04-11T21:21:05.008Z,83.70
2019-04-11T21:23:57.993Z,84.20
2019-04-11T21:26:29.513Z,84.20
2019-04-11T21:29:05.457Z,84.30
2019-04-11T21:31:43.692Z,84.50
2019-04-11T21:34:13.469Z,84.50
2019-04-11T21:36:50.940Z,84.20
2019-04-11T21:39:21.460Z,84.10
2019-04-11T21:41:51.364Z,84.40
2019-04-11T21:44:24.726Z,84.30
2019-04-11T21:46:55.326Z,84.00
2019-04-11T21:49:28.802Z,84.10
2019-04-11T21:52:12.021Z,84.10
2019-04-11T21:54:45.120Z,84.20
2019-04-11T21:57:10.646Z,84.10
2019-04-11T21:59:40.265Z,84.20
2019-04-11T22:02:16.314Z,84.30
2019-04-11T22:04:51.046Z,84.20
2019-04-11T22:07:25.344Z,84.40
2019-04-11T22:09:58.943Z,84.60
2019-04-11T22:12:48.577Z,84.80
2019-04-11T22:15:20.074Z,84.70
2019-04-11T22:17:50.235Z,84.60
2019-04-11T22:20:25.041Z,84.50
2019-04-11T22:23:17.754Z,84.60
2019-04-11T22:25:52.286Z,84.50
2019-04-11T22:28:25.026Z,84.20
2019-04-11T22:31:25.062Z,84.40
2019-04-11T22:34:02.466Z,84.60
2019-04-11T22:36:36.586Z,84.70
2019-04-11T22:39:18.433Z,84.50
2019-04-11T22:41:58.151Z,84.50
2019-04-11T22:44:29.101Z,84.50
2019-04-11T22:46:58.974Z,84.40
2019-04-11T22:49:29.734Z,84.40
2019-04-11T22:52:17.301Z,84.30
2019-04-11T22:55:11.300Z,84.30
2019-04-11T22:58:09.461Z,84.30
2019-04-11T23:01:14.025Z,84.00
2019-04-11T23:03:53.492Z,83.90
2019-04-11T23:06:23.422Z,83.20
2019-04-11T23:08:55.760Z,82.70
2019-04-11T23:11:29.217Z,82.70
2019-04-11T23:14:04.116Z,82.30
2019-04-11T23:17:01.105Z,82.30
2019-04-11T23:19:37.840Z,82.00
2019-04-11T23:22:21.355Z,82.10
2019-04-11T23:24:55.655Z,82.30
2019-04-11T23:27:27.684Z,82.90
2019-04-11T23:30:04.638Z,83.30
2019-04-11T23:32:35.498Z,82.90
2019-04-11T23:35:05.194Z,82.40
2019-04-11T23:37:51.229Z,82.40
2019-04-11T23:40:43.787Z,82.80
2019-04-11T23:43:44.905Z,82.80
2019-04-11T23:46:18.925Z,82.40
2019-04-11T23:48:55.491Z,82.20
2019-04-11T23:51:26.296Z,82.30
2019-04-11T23:53:58.859Z,82.50
2019-04-11T23:56:30.595Z,82.20
2019-04-11T23:59:01.550Z,81.80
